createdAt,value
2023-03-07T00:00:21.100Z,2.38
2023-03-07T00:06:24.738Z,2.03
2023-03-07T00:12:28.420Z,2.70
2023-03-07T00:18:33.270Z,1.88
2023-03-07T00:24:36.624Z,2.85
2023-03-07T00:30:40.012Z,1.60
2023-03-07T00:36:45.264Z,1.70
2023-03-07T00:42:48.649Z,1.45
2023-03-07T00:48:52.120Z,1.55
2023-03-07T00:54:56.855Z,1.50
2023-03-07T01:01:00.926Z,1.40
2023-03-07T01:07:04.340Z,2.10
2023-03-07T01:13:10.090Z,1.52
2023-03-07T01:19:13.951Z,2.00
2023-03-07T01:25:17.402Z,2.17
2023-03-07T01:31:22.897Z,1.75
2023-03-07T01:37:26.630Z,1.65
2023-03-07T01:43:31.081Z,1.67
2023-03-07T01:49:37.375Z,1.58
2023-03-07T01:55:41.399Z,1.38
2023-03-07T02:01:44.878Z,1.08
2023-03-07T02:07:51.592Z,1.33
2023-03-07T02:13:55.072Z,1.42
2023-03-07T02:20:05.421Z,1.50
2023-03-07T02:26:12.378Z,1.70
2023-03-07T02:32:17.449Z,1.63
2023-03-07T02:38:20.924Z,1.70
2023-03-07T02:44:24.373Z,1.70
2023-03-07T02:50:29.195Z,2.30
2023-03-07T02:56:32.584Z,2.08
2023-03-07T03:02:36.222Z,1.90
2023-03-07T03:08:40.997Z,2.35
2023-03-07T03:14:44.394Z,2.60
2023-03-07T03:20:47.816Z,2.80
2023-03-07T03:26:52.613Z,2.85
2023-03-07T03:32:56.603Z,2.42
2023-03-07T03:39:00.775Z,2.20
2023-03-07T03:45:06.347Z,2.60
2023-03-07T03:51:10.581Z,2.38
2023-03-07T03:57:17.860Z,1.98
2023-03-07T04:03:22.601Z,2.03
2023-03-07T04:09:26.061Z,2.60
2023-03-07T04:15:30.540Z,2.03
2023-03-07T04:21:35.353Z,2.40
2023-03-07T04:27:38.728Z,2.60
2023-03-07T04:33:42.132Z,1.92
2023-03-07T04:39:46.869Z,2.40
2023-03-07T04:45:50.368Z,2.15
2023-03-07T04:51:53.865Z,2.33
2023-03-07T04:57:58.733Z,1.92
2023-03-07T05:04:02.488Z,2.40
2023-03-07T05:10:06.131Z,1.40
2023-03-07T05:16:11.123Z,1.17
2023-03-07T05:22:14.529Z,1.33
2023-03-07T05:28:18.131Z,1.25
2023-03-07T05:34:22.948Z,1.45
2023-03-07T05:40:26.328Z,2.35
2023-03-07T05:46:29.794Z,2.70
2023-03-07T05:52:34.556Z,2.42
2023-03-07T05:58:38.516Z,1.80
2023-03-07T06:04:41.912Z,2.45
2023-03-07T06:10:50.801Z,2.53
2023-03-07T06:16:54.185Z,3.00
2023-03-07T06:22:57.572Z,3.25
2023-03-07T06:29:02.914Z,3.05
2023-03-07T06:35:06.611Z,2.97
2023-03-07T06:41:10.227Z,2.92
2023-03-07T06:47:15.194Z,3.30
2023-03-07T06:53:18.631Z,3.00
2023-03-07T06:59:22.128Z,3.55
2023-03-07T07:05:26.961Z,3.53
2023-03-07T07:11:30.334Z,3.22
2023-03-07T07:17:35.547Z,2.85
2023-03-07T07:23:40.297Z,3.03
2023-03-07T07:29:43.997Z,2.92
2023-03-07T07:35:48.060Z,2.90
2023-03-07T07:41:53.069Z,3.30
2023-03-07T07:47:56.554Z,2.72
2023-03-07T07:53:59.962Z,2.50
2023-03-07T08:00:05.336Z,2.42
2023-03-07T08:06:08.940Z,2.03
2023-03-07T08:12:13.534Z,2.17
2023-03-07T08:18:18.428Z,2.30
2023-03-07T08:24:29.302Z,1.88
2023-03-07T08:30:38.880Z,2.33
2023-03-07T08:36:43.657Z,1.80
2023-03-07T08:42:47.045Z,2.40
2023-03-07T08:48:50.579Z,1.80
2023-03-07T08:54:55.653Z,2.60
2023-03-07T09:00:59.803Z,2.65
2023-03-07T09:07:03.854Z,2.17
2023-03-07T09:13:08.718Z,2.08
2023-03-07T09:19:12.348Z,2.17
2023-03-07T09:25:16.141Z,1.35
2023-03-07T09:31:21.278Z,1.13
2023-03-07T09:37:24.688Z,1.02
2023-03-07T09:43:28.761Z,1.77
2023-03-07T09:49:35.829Z,1.10
2023-03-07T09:55:40.630Z,1.20
2023-03-07T10:01:46.257Z,1.45
2023-03-07T10:07:51.216Z,1.10
2023-03-07T10:14:01.658Z,1.10
2023-03-07T10:20:09.241Z,1.00
2023-03-07T10:26:14.677Z,1.20
2023-03-07T10:32:21.513Z,1.48
2023-03-07T10:38:29.217Z,2.83
2023-03-07T10:44:35.677Z,1.23
2023-03-07T10:50:43.229Z,1.77
2023-03-07T10:57:04.137Z,1.95
2023-03-07T11:03:21.609Z,1.30
2023-03-07T11:09:27.583Z,1.30
2023-03-07T11:15:31.058Z,1.60
2023-03-07T11:21:36.800Z,2.92
2023-03-07T11:27:41.157Z,1.30
2023-03-07T11:33:59.093Z,1.05
2023-03-07T11:40:13.609Z,1.42
2023-03-07T11:46:20.890Z,1.75
2023-03-07T11:52:33.049Z,1.75
2023-03-07T11:58:51.605Z,2.00
2023-03-07T12:04:59.193Z,1.80
2023-03-07T12:11:11.296Z,2.17
2023-03-07T12:17:23.960Z,2.00
2023-03-07T12:23:33.814Z,2.42
2023-03-07T12:29:40.251Z,2.50
2023-03-07T12:35:47.366Z,2.53
2023-03-07T12:41:56.275Z,2.30
2023-03-07T12:48:05.413Z,2.00
2023-03-07T12:54:12.810Z,1.70
2023-03-07T13:00:21.224Z,1.50
2023-03-07T13:06:25.561Z,1.50
2023-03-07T13:12:34.410Z,1.60
2023-03-07T13:18:37.896Z,4.88
2023-03-07T13:24:42.225Z,1.20
2023-03-07T13:31:11.463Z,1.70
2023-03-07T13:37:33.385Z,1.50
2023-03-07T13:43:59.927Z,1.50
2023-03-07T13:50:05.599Z,1.30
2023-03-07T13:56:12.614Z,1.23
2023-03-07T14:02:18.374Z,1.17
2023-03-07T14:08:25.332Z,1.85
2023-03-07T14:14:38.731Z,1.88
2023-03-07T14:20:47.850Z,2.00
2023-03-07T14:26:54.947Z,1.80
2023-03-07T14:32:59.078Z,2.10
2023-03-07T14:39:04.104Z,2.20
2023-03-07T14:45:18.132Z,2.60
2023-03-07T14:51:23.565Z,1.92
2023-03-07T14:57:31.431Z,2.20
2023-03-07T15:03:37.046Z,2.70
2023-03-07T15:09:40.807Z,1.88
2023-03-07T15:15:47.248Z,2.15
2023-03-07T15:21:53.935Z,2.00
2023-03-07T15:28:01.874Z,2.35
2023-03-07T15:34:12.620Z,1.92
2023-03-07T15:40:27.267Z,2.10
2023-03-07T15:46:32.437Z,3.22
2023-03-07T15:52:37.360Z,2.40
2023-03-07T15:58:45.447Z,1.80
2023-03-07T16:04:49.103Z,1.60
2023-03-07T16:10:53.989Z,1.90
2023-03-07T16:17:00.615Z,2.40
2023-03-07T16:23:06.981Z,2.30
2023-03-07T16:29:12.403Z,2.83
2023-03-07T16:35:18.560Z,2.90
2023-03-07T16:41:23.304Z,2.75
2023-03-07T16:47:26.892Z,3.65
2023-03-07T16:53:31.665Z,3.28
2023-03-07T16:59:36.512Z,4.45
2023-03-07T17:05:41.135Z,3.05
2023-03-07T17:11:49.254Z,3.50
2023-03-07T17:17:53.217Z,5.40
2023-03-07T17:23:56.634Z,4.70
2023-03-07T17:30:01.557Z,4.88
2023-03-07T17:36:05.516Z,5.38
2023-03-07T17:42:09.124Z,5.07
2023-03-07T17:48:14.030Z,5.95
2023-03-07T17:54:17.463Z,6.22
2023-03-07T18:00:22.886Z,6.65
2023-03-07T18:06:28.476Z,7.20
2023-03-07T18:12:31.906Z,6.80
2023-03-07T18:18:36.439Z,6.50
2023-03-07T18:24:41.473Z,6.97
2023-03-07T18:30:44.910Z,6.07
2023-03-07T18:36:51.649Z,6.72
2023-03-07T18:42:59.361Z,6.70
2023-03-07T18:49:02.890Z,11.55
2023-03-07T18:55:06.769Z,8.38
2023-03-07T19:01:12.892Z,8.50
2023-03-07T19:07:16.348Z,10.38
2023-03-07T19:13:19.732Z,9.07
2023-03-07T19:19:24.517Z,11.48
2023-03-07T19:25:27.992Z,10.27
2023-03-07T19:31:32.306Z,7.68
2023-03-07T19:37:38.441Z,7.40
2023-03-07T19:43:42.218Z,7.03
2023-03-07T19:49:45.714Z,8.75
2023-03-07T19:55:50.561Z,7.50
2023-03-07T20:01:53.973Z,7.97
2023-03-07T20:07:58.047Z,10.82
2023-03-07T20:14:04.881Z,9.40
2023-03-07T20:20:08.934Z,7.03
2023-03-07T20:26:13.320Z,8.15
2023-03-07T20:32:18.176Z,9.20
2023-03-07T20:38:21.940Z,11.77
2023-03-07T20:44:25.392Z,11.80
2023-03-07T20:50:30.277Z,12.57
2023-03-07T20:56:34.700Z,11.57
2023-03-07T21:02:40.399Z,13.18
2023-03-07T21:08:45.352Z,12.18
2023-03-07T21:14:48.738Z,10.57
2023-03-07T21:20:52.229Z,10.90
2023-03-07T21:26:58.381Z,11.00
2023-03-07T21:33:01.821Z,11.88
2023-03-07T21:39:07.994Z,11.38
2023-03-07T21:45:14.561Z,11.10
2023-03-07T21:51:18.179Z,11.85
2023-03-07T21:57:21.639Z,14.60
2023-03-07T22:03:26.881Z,10.57
2023-03-07T22:09:30.988Z,15.45
2023-03-07T22:15:35.606Z,21.98
2023-03-07T22:21:40.727Z,12.82
2023-03-07T22:27:45.395Z,11.88
2023-03-07T22:33:49.148Z,11.95
2023-03-07T22:39:54.248Z,11.38
2023-03-07T22:45:57.910Z,10.68
2023-03-07T22:52:01.439Z,10.45
2023-03-07T22:58:06.247Z,10.55
2023-03-07T23:04:10.104Z,10.73
2023-03-07T23:10:13.870Z,10.93
2023-03-07T23:16:19.825Z,13.23
2023-03-07T23:22:23.237Z,12.88
2023-03-07T23:28:26.997Z,12.45
2023-03-07T23:34:31.810Z,11.70
2023-03-07T23:40:37.548Z,11.82
2023-03-07T23:46:41.617Z,12.45
2023-03-07T23:52:46.417Z,12.18
2023-03-07T23:58:50.690Z,12.30
